sensor_id;sensor_type;location;lat;lon;timestamp;P1;durP1;ratioP1;P2;durP2;ratioP2
10005;SDS011;5042;42.626;23.382;2022-09-09T00:00:24;5.57;;;4.43;;
10005;SDS011;5042;42.626;23.382;2022-09-09T00:02:54;5.88;;;5.10;;
10005;SDS011;5042;42.626;23.382;2022-09-09T00:05:31;5.65;;;4.93;;
10005;SDS011;5042;42.626;23.382;2022-09-09T00:08:07;7.35;;;5.65;;
10005;SDS011;5042;42.626;23.382;2022-09-09T00:10:44;7.43;;;5.57;;
10005;SDS011;5042;42.626;23.382;2022-09-09T00:13:18;6.32;;;5.13;;
10005;SDS011;5042;42.626;23.382;2022-09-09T00:15:52;5.78;;;5.18;;
10005;SDS011;5042;42.626;23.382;2022-09-09T00:18:25;5.93;;;5.30;;
10005;SDS011;5042;42.626;23.382;2022-09-09T00:21:00;5.78;;;5.00;;
10005;SDS011;5042;42.626;23.382;2022-09-09T00:23:33;5.93;;;4.38;;
10005;SDS011;5042;42.626;23.382;2022-09-09T00:26:04;5.28;;;4.78;;
10005;SDS011;5042;42.626;23.382;2022-09-09T00:28:36;7.07;;;4.88;;
10005;SDS011;5042;42.626;23.382;2022-09-09T00:31:11;6.10;;;5.50;;
10005;SDS011;5042;42.626;23.382;2022-09-09T00:33:39;7.43;;;4.90;;
10005;SDS011;5042;42.626;23.382;2022-09-09T00:36:12;5.30;;;4.80;;
10005;SDS011;5042;42.626;23.382;2022-09-09T00:38:42;5.72;;;4.75;;
10005;SDS011;5042;42.626;23.382;2022-09-09T00:41:14;6.43;;;5.07;;
10005;SDS011;5042;42.626;23.382;2022-09-09T00:43:51;5.32;;;4.70;;
10005;SDS011;5042;42.626;23.382;2022-09-09T00:46:27;5.68;;;4.65;;
10005;SDS011;5042;42.626;23.382;2022-09-09T00:49:15;6.53;;;5.55;;
10005;SDS011;5042;42.626;23.382;2022-09-09T00:51:52;5.90;;;5.13;;
10005;SDS011;5042;42.626;23.382;2022-09-09T00:54:37;5.68;;;5.10;;
10005;SDS011;5042;42.626;23.382;2022-09-09T00:57:19;6.78;;;5.28;;
10005;SDS011;5042;42.626;23.382;2022-09-09T01:02:46;5.82;;;5.07;;
10005;SDS011;5042;42.626;23.382;2022-09-09T01:05:20;5.82;;;5.18;;
10005;SDS011;5042;42.626;23.382;2022-09-09T01:07:53;5.80;;;5.13;;
10005;SDS011;5042;42.626;23.382;2022-09-09T01:10:22;6.65;;;5.38;;
10005;SDS011;5042;42.626;23.382;2022-09-09T01:12:58;5.78;;;5.25;;
10005;SDS011;5042;42.626;23.382;2022-09-09T01:15:31;6.35;;;5.28;;
10005;SDS011;5042;42.626;23.382;2022-09-09T01:18:00;6.65;;;5.45;;
10005;SDS011;5042;42.626;23.382;2022-09-09T01:20:31;6.38;;;5.55;;
10005;SDS011;5042;42.626;23.382;2022-09-09T01:23:19;6.07;;;5.47;;
10005;SDS011;5042;42.626;23.382;2022-09-09T01:28:52;6.18;;;5.57;;
10005;SDS011;5042;42.626;23.382;2022-09-09T01:31:20;6.18;;;5.57;;
10005;SDS011;5042;42.626;23.382;2022-09-09T01:33:51;6.38;;;5.78;;
10005;SDS011;5042;42.626;23.382;2022-09-09T01:36:20;6.80;;;5.85;;
10005;SDS011;5042;42.626;23.382;2022-09-09T01:38:52;7.95;;;5.50;;
10005;SDS011;5042;42.626;23.382;2022-09-09T01:41:19;7.53;;;5.53;;
10005;SDS011;5042;42.626;23.382;2022-09-09T01:43:48;6.25;;;5.63;;
10005;SDS011;5042;42.626;23.382;2022-09-09T01:46:17;6.65;;;5.88;;
10005;SDS011;5042;42.626;23.382;2022-09-09T01:48:47;6.30;;;5.70;;
10005;SDS011;5042;42.626;23.382;2022-09-09T01:51:15;5.88;;;5.35;;
10005;SDS011;5042;42.626;23.382;2022-09-09T01:53:41;5.50;;;4.90;;
10005;SDS011;5042;42.626;23.382;2022-09-09T01:56:12;6.30;;;5.70;;
10005;SDS011;5042;42.626;23.382;2022-09-09T01:59:00;7.63;;;6.32;;
10005;SDS011;5042;42.626;23.382;2022-09-09T02:01:36;6.82;;;5.40;;
10005;SDS011;5042;42.626;23.382;2022-09-09T02:04:16;6.45;;;5.25;;
10005;SDS011;5042;42.626;23.382;2022-09-09T02:06:51;7.03;;;5.85;;
10005;SDS011;5042;42.626;23.382;2022-09-09T02:09:22;5.93;;;5.32;;
10005;SDS011;5042;42.626;23.382;2022-09-09T02:11:51;6.55;;;5.47;;
10005;SDS011;5042;42.626;23.382;2022-09-09T02:14:27;5.78;;;5.28;;
10005;SDS011;5042;42.626;23.382;2022-09-09T02:16:57;7.57;;;5.10;;
10005;SDS011;5042;42.626;23.382;2022-09-09T02:19:29;7.10;;;5.47;;
10005;SDS011;5042;42.626;23.382;2022-09-09T02:22:01;6.10;;;5.53;;
10005;SDS011;5042;42.626;23.382;2022-09-09T02:24:29;5.93;;;5.32;;
10005;SDS011;5042;42.626;23.382;2022-09-09T02:26:59;6.40;;;5.55;;
10005;SDS011;5042;42.626;23.382;2022-09-09T02:29:34;5.22;;;4.72;;
10005;SDS011;5042;42.626;23.382;2022-09-09T02:32:03;6.10;;;5.25;;
10005;SDS011;5042;42.626;23.382;2022-09-09T02:34:33;7.05;;;5.15;;
10005;SDS011;5042;42.626;23.382;2022-09-09T02:37:04;5.57;;;4.97;;
10005;SDS011;5042;42.626;23.382;2022-09-09T02:39:34;5.57;;;5.07;;
10005;SDS011;5042;42.626;23.382;2022-09-09T02:42:01;6.10;;;5.50;;
10005;SDS011;5042;42.626;23.382;2022-09-09T02:44:29;6.40;;;5.55;;
10005;SDS011;5042;42.626;23.382;2022-09-09T02:47:01;5.43;;;4.72;;
10005;SDS011;5042;42.626;23.382;2022-09-09T02:49:47;6.53;;;5.40;;
10005;SDS011;5042;42.626;23.382;2022-09-09T02:52:25;5.22;;;4.60;;
10005;SDS011;5042;42.626;23.382;2022-09-09T02:54:57;6.47;;;5.30;;
10005;SDS011;5042;42.626;23.382;2022-09-09T02:57:31;5.88;;;5.18;;
10005;SDS011;5042;42.626;23.382;2022-09-09T02:59:59;5.53;;;4.90;;
10005;SDS011;5042;42.626;23.382;2022-09-09T03:02:28;7.07;;;5.80;;
10005;SDS011;5042;42.626;23.382;2022-09-09T03:04:55;6.57;;;5.47;;
10005;SDS011;5042;42.626;23.382;2022-09-09T03:07:23;5.80;;;5.20;;
10005;SDS011;5042;42.626;23.382;2022-09-09T03:09:49;6.53;;;5.47;;
10005;SDS011;5042;42.626;23.382;2022-09-09T03:12:19;7.10;;;5.57;;
10005;SDS011;5042;42.626;23.382;2022-09-09T03:14:45;6.03;;;5.35;;
10005;SDS011;5042;42.626;23.382;2022-09-09T03:17:12;5.90;;;5.30;;
10005;SDS011;5042;42.626;23.382;2022-09-09T03:19:40;9.73;;;6.50;;
10005;SDS011;5042;42.626;23.382;2022-09-09T03:22:08;8.73;;;6.07;;
10005;SDS011;5042;42.626;23.382;2022-09-09T03:24:36;7.40;;;6.07;;
10005;SDS011;5042;42.626;23.382;2022-09-09T03:27:02;7.00;;;6.30;;
10005;SDS011;5042;42.626;23.382;2022-09-09T03:29:29;6.75;;;6.05;;
10005;SDS011;5042;42.626;23.382;2022-09-09T03:31:56;7.53;;;6.30;;
10005;SDS011;5042;42.626;23.382;2022-09-09T03:34:23;8.60;;;6.40;;
10005;SDS011;5042;42.626;23.382;2022-09-09T03:36:51;8.32;;;6.82;;
10005;SDS011;5042;42.626;23.382;2022-09-09T03:39:18;8.60;;;6.30;;
10005;SDS011;5042;42.626;23.382;2022-09-09T03:41:45;7.72;;;6.57;;
10005;SDS011;5042;42.626;23.382;2022-09-09T03:44:13;7.30;;;6.50;;
10005;SDS011;5042;42.626;23.382;2022-09-09T03:46:40;7.53;;;6.37;;
10005;SDS011;5042;42.626;23.382;2022-09-09T03:51:55;7.32;;;6.18;;
10005;SDS011;5042;42.626;23.382;2022-09-09T03:54:23;7.72;;;6.07;;
10005;SDS011;5042;42.626;23.382;2022-09-09T03:56:50;6.82;;;5.75;;
10005;SDS011;5042;42.626;23.382;2022-09-09T03:59:17;7.65;;;6.07;;
10005;SDS011;5042;42.626;23.382;2022-09-09T04:01:44;7.97;;;6.45;;
10005;SDS011;5042;42.626;23.382;2022-09-09T04:04:12;8.37;;;6.80;;
10005;SDS011;5042;42.626;23.382;2022-09-09T04:06:39;9.20;;;7.18;;
10005;SDS011;5042;42.626;23.382;2022-09-09T04:09:07;7.23;;;6.50;;
10005;SDS011;5042;42.626;23.382;2022-09-09T04:11:34;9.88;;;6.90;;
10005;SDS011;5042;42.626;23.382;2022-09-09T04:14:02;8.87;;;6.70;;
10005;SDS011;5042;42.626;23.382;2022-09-09T04:16:29;7.80;;;6.95;;
10005;SDS011;5042;42.626;23.382;2022-09-09T04:18:55;8.27;;;6.07;;
10005;SDS011;5042;42.626;23.382;2022-09-09T04:21:23;7.50;;;6.67;;
10005;SDS011;5042;42.626;23.382;2022-09-09T04:23:49;7.15;;;6.20;;
10005;SDS011;5042;42.626;23.382;2022-09-09T04:26:17;7.20;;;6.27;;
10005;SDS011;5042;42.626;23.382;2022-09-09T04:28:45;9.38;;;6.90;;
10005;SDS011;5042;42.626;23.382;2022-09-09T04:31:14;7.70;;;6.60;;
10005;SDS011;5042;42.626;23.382;2022-09-09T04:33:43;6.90;;;6.20;;
10005;SDS011;5042;42.626;23.382;2022-09-09T04:36:09;6.40;;;5.73;;
10005;SDS011;5042;42.626;23.382;2022-09-09T04:38:37;7.20;;;5.90;;
10005;SDS011;5042;42.626;23.382;2022-09-09T04:41:05;7.57;;;6.10;;
10005;SDS011;5042;42.626;23.382;2022-09-09T04:43:33;7.50;;;5.75;;
10005;SDS011;5042;42.626;23.382;2022-09-09T04:46:00;6.80;;;6.07;;
10005;SDS011;5042;42.626;23.382;2022-09-09T04:48:27;7.72;;;6.15;;
10005;SDS011;5042;42.626;23.382;2022-09-09T04:50:57;6.80;;;6.10;;
10005;SDS011;5042;42.626;23.382;2022-09-09T04:53:26;6.95;;;5.45;;
10005;SDS011;5042;42.626;23.382;2022-09-09T04:55:52;7.53;;;6.13;;
10005;SDS011;5042;42.626;23.382;2022-09-09T04:58:19;7.95;;;6.38;;
10005;SDS011;5042;42.626;23.382;2022-09-09T05:00:49;8.73;;;5.82;;
10005;SDS011;5042;42.626;23.382;2022-09-09T05:03:16;6.90;;;6.10;;
10005;SDS011;5042;42.626;23.382;2022-09-09T05:05:44;6.32;;;5.72;;
10005;SDS011;5042;42.626;23.382;2022-09-09T05:08:11;6.88;;;5.55;;
10005;SDS011;5042;42.626;23.382;2022-09-09T05:10:38;6.57;;;5.15;;
10005;SDS011;5042;42.626;23.382;2022-09-09T05:13:07;6.45;;;5.65;;
10005;SDS011;5042;42.626;23.382;2022-09-09T05:15:33;6.10;;;5.50;;
10005;SDS011;5042;42.626;23.382;2022-09-09T05:18:02;5.65;;;5.15;;
10005;SDS011;5042;42.626;23.382;2022-09-09T05:20:29;7.18;;;5.25;;
10005;SDS011;5042;42.626;23.382;2022-09-09T05:22:56;6.90;;;5.20;;
10005;SDS011;5042;42.626;23.382;2022-09-09T05:25:23;5.18;;;4.78;;
10005;SDS011;5042;42.626;23.382;2022-09-09T05:27:51;6.20;;;5.57;;
10005;SDS011;5042;42.626;23.382;2022-09-09T05:30:19;6.72;;;5.32;;
10005;SDS011;5042;42.626;23.382;2022-09-09T05:32:47;7.50;;;5.85;;
10005;SDS011;5042;42.626;23.382;2022-09-09T05:35:15;6.70;;;6.05;;
10005;SDS011;5042;42.626;23.382;2022-09-09T05:37:44;5.97;;;5.40;;
10005;SDS011;5042;42.626;23.382;2022-09-09T05:40:11;7.68;;;6.35;;
10005;SDS011;5042;42.626;23.382;2022-09-09T05:42:38;7.90;;;6.30;;
10005;SDS011;5042;42.626;23.382;2022-09-09T05:45:05;9.35;;;6.47;;
10005;SDS011;5042;42.626;23.382;2022-09-09T05:47:33;5.35;;;4.78;;
10005;SDS011;5042;42.626;23.382;2022-09-09T05:50:00;4.63;;;4.22;;
10005;SDS011;5042;42.626;23.382;2022-09-09T05:52:28;5.47;;;4.15;;
10005;SDS011;5042;42.626;23.382;2022-09-09T05:54:55;4.45;;;4.05;;
10005;SDS011;5042;42.626;23.382;2022-09-09T05:57:22;4.65;;;4.13;;
10005;SDS011;5042;42.626;23.382;2022-09-09T05:59:48;4.47;;;4.10;;
10005;SDS011;5042;42.626;23.382;2022-09-09T06:02:15;3.92;;;3.63;;
10005;SDS011;5042;42.626;23.382;2022-09-09T06:04:42;4.60;;;4.03;;
10005;SDS011;5042;42.626;23.382;2022-09-09T06:07:09;4.32;;;3.92;;
10005;SDS011;5042;42.626;23.382;2022-09-09T06:09:37;4.28;;;3.63;;
10005;SDS011;5042;42.626;23.382;2022-09-09T06:12:04;4.05;;;3.65;;
10005;SDS011;5042;42.626;23.382;2022-09-09T06:14:31;3.78;;;3.47;;
10005;SDS011;5042;42.626;23.382;2022-09-09T06:16:58;4.97;;;3.47;;
10005;SDS011;5042;42.626;23.382;2022-09-09T06:19:25;6.70;;;5.10;;
10005;SDS011;5042;42.626;23.382;2022-09-09T06:21:52;4.35;;;3.90;;
10005;SDS011;5042;42.626;23.382;2022-09-09T06:24:18;3.92;;;3.50;;
10005;SDS011;5042;42.626;23.382;2022-09-09T06:26:46;3.72;;;3.42;;
10005;SDS011;5042;42.626;23.382;2022-09-09T06:29:13;3.97;;;3.58;;
10005;SDS011;5042;42.626;23.382;2022-09-09T06:31:40;4.63;;;3.55;;
10005;SDS011;5042;42.626;23.382;2022-09-09T06:34:07;4.97;;;3.67;;
10005;SDS011;5042;42.626;23.382;2022-09-09T06:36:35;3.67;;;3.38;;
10005;SDS011;5042;42.626;23.382;2022-09-09T06:39:03;4.10;;;3.80;;
10005;SDS011;5042;42.626;23.382;2022-09-09T06:41:31;4.78;;;3.83;;
10005;SDS011;5042;42.626;23.382;2022-09-09T06:44:00;3.97;;;3.53;;
10005;SDS011;5042;42.626;23.382;2022-09-09T06:46:28;5.00;;;3.63;;
10005;SDS011;5042;42.626;23.382;2022-09-09T06:48:58;3.97;;;3.67;;
10005;SDS011;5042;42.626;23.382;2022-09-09T06:51:26;3.80;;;3.50;;
10005;SDS011;5042;42.626;23.382;2022-09-09T06:53:54;3.97;;;3.65;;
10005;SDS011;5042;42.626;23.382;2022-09-09T06:56:23;3.30;;;3.10;;
10005;SDS011;5042;42.626;23.382;2022-09-09T06:58:53;5.10;;;3.65;;
10005;SDS011;5042;42.626;23.382;2022-09-09T07:01:22;3.70;;;3.35;;
10005;SDS011;5042;42.626;23.382;2022-09-09T07:03:51;3.70;;;3.20;;
10005;SDS011;5042;42.626;23.382;2022-09-09T07:06:20;3.65;;;3.33;;
10005;SDS011;5042;42.626;23.382;2022-09-09T07:08:49;3.70;;;3.40;;
10005;SDS011;5042;42.626;23.382;2022-09-09T07:11:16;3.88;;;3.58;;
10005;SDS011;5042;42.626;23.382;2022-09-09T07:13:44;3.67;;;3.38;;
10005;SDS011;5042;42.626;23.382;2022-09-09T07:16:11;3.75;;;3.40;;
10005;SDS011;5042;42.626;23.382;2022-09-09T07:18:41;3.97;;;3.53;;
10005;SDS011;5042;42.626;23.382;2022-09-09T07:21:08;4.60;;;4.20;;
10005;SDS011;5042;42.626;23.382;2022-09-09T07:23:37;4.20;;;3.80;;
10005;SDS011;5042;42.626;23.382;2022-09-09T07:26:07;3.97;;;3.67;;
10005;SDS011;5042;42.626;23.382;2022-09-09T07:28:34;4.53;;;3.72;;
10005;SDS011;5042;42.626;23.382;2022-09-09T07:31:02;4.47;;;4.05;;
10005;SDS011;5042;42.626;23.382;2022-09-09T07:33:29;4.40;;;4.00;;
10005;SDS011;5042;42.626;23.382;2022-09-09T07:36:03;4.07;;;3.67;;
10005;SDS011;5042;42.626;23.382;2022-09-09T07:38:32;4.32;;;3.92;;
10005;SDS011;5042;42.626;23.382;2022-09-09T07:41:04;5.65;;;4.07;;
10005;SDS011;5042;42.626;23.382;2022-09-09T07:43:32;3.65;;;3.35;;
10005;SDS011;5042;42.626;23.382;2022-09-09T07:45:59;4.03;;;3.50;;
10005;SDS011;5042;42.626;23.382;2022-09-09T07:48:27;4.85;;;3.60;;
10005;SDS011;5042;42.626;23.382;2022-09-09T07:51:03;3.78;;;3.47;;
10005;SDS011;5042;42.626;23.382;2022-09-09T07:53:32;5.13;;;3.63;;
10005;SDS011;5042;42.626;23.382;2022-09-09T07:56:05;4.88;;;3.80;;
10005;SDS011;5042;42.626;23.382;2022-09-09T07:58:34;4.03;;;3.30;;
10005;SDS011;5042;42.626;23.382;2022-09-09T08:01:05;4.93;;;3.42;;
10005;SDS011;5042;42.626;23.382;2022-09-09T08:03:33;4.57;;;3.50;;
10005;SDS011;5042;42.626;23.382;2022-09-09T08:06:00;4.38;;;3.72;;
10005;SDS011;5042;42.626;23.382;2022-09-09T08:08:29;4.10;;;3.67;;
10005;SDS011;5042;42.626;23.382;2022-09-09T08:11:01;4.40;;;3.75;;
10005;SDS011;5042;42.626;23.382;2022-09-09T08:13:32;4.05;;;3.75;;
10005;SDS011;5042;42.626;23.382;2022-09-09T08:16:09;3.50;;;3.20;;
10005;SDS011;5042;42.626;23.382;2022-09-09T08:18:37;3.95;;;3.38;;
10005;SDS011;5042;42.626;23.382;2022-09-09T08:21:05;5.20;;;3.75;;
10005;SDS011;5042;42.626;23.382;2022-09-09T08:23:35;3.53;;;3.22;;
10005;SDS011;5042;42.626;23.382;2022-09-09T08:26:03;4.90;;;3.40;;
10005;SDS011;5042;42.626;23.382;2022-09-09T08:28:30;7.15;;;3.90;;
10005;SDS011;5042;42.626;23.382;2022-09-09T08:31:04;3.75;;;3.45;;
10005;SDS011;5042;42.626;23.382;2022-09-09T08:33:31;3.50;;;3.22;;
10005;SDS011;5042;42.626;23.382;2022-09-09T08:35:59;4.55;;;3.70;;
10005;SDS011;5042;42.626;23.382;2022-09-09T08:38:25;3.75;;;3.38;;
10005;SDS011;5042;42.626;23.382;2022-09-09T08:40:55;3.50;;;3.20;;
10005;SDS011;5042;42.626;23.382;2022-09-09T08:43:31;4.28;;;3.88;;
10005;SDS011;5042;42.626;23.382;2022-09-09T08:46:00;4.10;;;3.50;;
10005;SDS011;5042;42.626;23.382;2022-09-09T08:48:38;4.68;;;3.60;;
10005;SDS011;5042;42.626;23.382;2022-09-09T08:51:13;3.70;;;3.40;;
10005;SDS011;5042;42.626;23.382;2022-09-09T08:53:41;3.92;;;3.30;;
10005;SDS011;5042;42.626;23.382;2022-09-09T08:56:14;3.80;;;3.42;;
10005;SDS011;5042;42.626;23.382;2022-09-09T08:58:45;3.38;;;3.10;;
10005;SDS011;5042;42.626;23.382;2022-09-09T09:01:17;4.25;;;3.45;;
10005;SDS011;5042;42.626;23.382;2022-09-09T09:04:06;4.07;;;3.70;;
10005;SDS011;5042;42.626;23.382;2022-09-09T09:06:49;3.65;;;3.35;;
10005;SDS011;5042;42.626;23.382;2022-09-09T09:09:21;3.92;;;3.53;;
10005;SDS011;5042;42.626;23.382;2022-09-09T09:11:57;3.67;;;3.38;;
10005;SDS011;5042;42.626;23.382;2022-09-09T09:14:27;3.67;;;3.38;;
10005;SDS011;5042;42.626;23.382;2022-09-09T09:16:59;4.95;;;3.83;;
10005;SDS011;5042;42.626;23.382;2022-09-09T09:19:29;4.15;;;3.17;;
10005;SDS011;5042;42.626;23.382;2022-09-09T09:21:59;4.32;;;3.67;;
10005;SDS011;5042;42.626;23.382;2022-09-09T09:24:35;4.07;;;3.38;;
10005;SDS011;5042;42.626;23.382;2022-09-09T09:27:14;3.70;;;3.40;;
10005;SDS011;5042;42.626;23.382;2022-09-09T09:29:44;3.70;;;3.40;;
10005;SDS011;5042;42.626;23.382;2022-09-09T09:32:15;5.57;;;3.80;;
10005;SDS011;5042;42.626;23.382;2022-09-09T09:34:48;3.72;;;3.33;;
10005;SDS011;5042;42.626;23.382;2022-09-09T09:37:16;3.53;;;3.22;;
10005;SDS011;5042;42.626;23.382;2022-09-09T09:39:49;4.53;;;3.55;;
10005;SDS011;5042;42.626;23.382;2022-09-09T09:42:17;5.78;;;3.60;;
10005;SDS011;5042;42.626;23.382;2022-09-09T09:44:45;3.55;;;3.35;;
10005;SDS011;5042;42.626;23.382;2022-09-09T09:47:13;3.97;;;3.60;;
10005;SDS011;5042;42.626;23.382;2022-09-09T09:49:50;3.60;;;3.30;;
10005;SDS011;5042;42.626;23.382;2022-09-09T09:52:19;3.90;;;3.60;;
10005;SDS011;5042;42.626;23.382;2022-09-09T09:54:48;4.55;;;3.63;;
10005;SDS011;5042;42.626;23.382;2022-09-09T09:57:18;4.10;;;3.67;;
10005;SDS011;5042;42.626;23.382;2022-09-09T09:59:59;3.85;;;3.53;;
10005;SDS011;5042;42.626;23.382;2022-09-09T10:02:31;3.88;;;3.47;;
10005;SDS011;5042;42.626;23.382;2022-09-09T10:05:05;5.18;;;3.35;;
10005;SDS011;5042;42.626;23.382;2022-09-09T10:07:38;3.67;;;3.38;;
10005;SDS011;5042;42.626;23.382;2022-09-09T10:10:07;4.50;;;3.85;;
10005;SDS011;5042;42.626;23.382;2022-09-09T10:12:43;4.05;;;3.65;;
10005;SDS011;5042;42.626;23.382;2022-09-09T10:15:24;4.10;;;3.20;;
10005;SDS011;5042;42.626;23.382;2022-09-09T10:18:04;4.07;;;3.30;;
10005;SDS011;5042;42.626;23.382;2022-09-09T10:20:43;3.97;;;3.67;;
10005;SDS011;5042;42.626;23.382;2022-09-09T10:23:28;3.88;;;3.42;;
10005;SDS011;5042;42.626;23.382;2022-09-09T10:26:11;4.72;;;3.50;;
10005;SDS011;5042;42.626;23.382;2022-09-09T10:28:58;4.43;;;3.35;;
10005;SDS011;5042;42.626;23.382;2022-09-09T10:31:51;3.53;;;3.10;;
10005;SDS011;5042;42.626;23.382;2022-09-09T10:34:32;3.85;;;3.45;;
10005;SDS011;5042;42.626;23.382;2022-09-09T10:37:17;5.85;;;4.10;;
10005;SDS011;5042;42.626;23.382;2022-09-09T10:39:56;5.10;;;4.25;;
10005;SDS011;5042;42.626;23.382;2022-09-09T10:42:31;4.10;;;3.70;;
10005;SDS011;5042;42.626;23.382;2022-09-09T10:45:04;4.13;;;3.72;;
10005;SDS011;5042;42.626;23.382;2022-09-09T10:47:52;4.78;;;3.80;;
10005;SDS011;5042;42.626;23.382;2022-09-09T10:50:30;4.05;;;3.50;;
10005;SDS011;5042;42.626;23.382;2022-09-09T10:53:14;3.88;;;3.58;;
10005;SDS011;5042;42.626;23.382;2022-09-09T10:55:48;4.45;;;4.05;;
10005;SDS011;5042;42.626;23.382;2022-09-09T10:58:20;4.63;;;4.05;;
10005;SDS011;5042;42.626;23.382;2022-09-09T11:00:53;3.95;;;3.30;;
10005;SDS011;5042;42.626;23.382;2022-09-09T11:03:25;4.40;;;3.70;;
10005;SDS011;5042;42.626;23.382;2022-09-09T11:05:56;4.05;;;3.65;;
10005;SDS011;5042;42.626;23.382;2022-09-09T11:08:26;4.78;;;4.38;;
10005;SDS011;5042;42.626;23.382;2022-09-09T11:10:57;4.43;;;4.00;;
10005;SDS011;5042;42.626;23.382;2022-09-09T11:13:30;7.07;;;4.75;;
10005;SDS011;5042;42.626;23.382;2022-09-09T11:16:11;4.85;;;4.22;;
10005;SDS011;5042;42.626;23.382;2022-09-09T11:18:45;5.10;;;4.20;;
10005;SDS011;5042;42.626;23.382;2022-09-09T11:21:15;4.93;;;4.30;;
10005;SDS011;5042;42.626;23.382;2022-09-09T11:23:48;4.55;;;4.03;;
10005;SDS011;5042;42.626;23.382;2022-09-09T11:26:21;5.28;;;4.50;;
10005;SDS011;5042;42.626;23.382;2022-09-09T11:29:00;4.70;;;3.58;;
10005;SDS011;5042;42.626;23.382;2022-09-09T11:31:46;6.22;;;3.90;;
10005;SDS011;5042;42.626;23.382;2022-09-09T11:34:33;5.85;;;3.78;;
10005;SDS011;5042;42.626;23.382;2022-09-09T11:37:15;4.22;;;3.88;;
10005;SDS011;5042;42.626;23.382;2022-09-09T11:40:07;5.70;;;4.25;;
10005;SDS011;5042;42.626;23.382;2022-09-09T11:42:41;4.85;;;3.97;;
10005;SDS011;5042;42.626;23.382;2022-09-09T11:45:20;4.70;;;4.20;;
10005;SDS011;5042;42.626;23.382;2022-09-09T11:47:54;4.47;;;4.07;;
10005;SDS011;5042;42.626;23.382;2022-09-09T11:50:31;6.05;;;4.30;;
10005;SDS011;5042;42.626;23.382;2022-09-09T11:53:19;5.22;;;4.35;;
10005;SDS011;5042;42.626;23.382;2022-09-09T11:56:06;5.15;;;4.57;;
10005;SDS011;5042;42.626;23.382;2022-09-09T11:58:39;4.68;;;4.22;;
10005;SDS011;5042;42.626;23.382;2022-09-09T12:01:15;4.57;;;4.10;;
10005;SDS011;5042;42.626;23.382;2022-09-09T12:03:59;4.90;;;4.50;;
10005;SDS011;5042;42.626;23.382;2022-09-09T12:06:41;5.82;;;4.47;;
10005;SDS011;5042;42.626;23.382;2022-09-09T12:09:14;4.72;;;4.25;;
10005;SDS011;5042;42.626;23.382;2022-09-09T12:11:46;4.60;;;4.20;;
10005;SDS011;5042;42.626;23.382;2022-09-09T12:14:19;5.80;;;4.28;;
10005;SDS011;5042;42.626;23.382;2022-09-09T12:16:48;4.72;;;4.25;;
10005;SDS011;5042;42.626;23.382;2022-09-09T12:19:18;4.85;;;4.30;;
10005;SDS011;5042;42.626;23.382;2022-09-09T12:21:49;4.00;;;3.67;;
10005;SDS011;5042;42.626;23.382;2022-09-09T12:24:22;4.40;;;4.00;;
10005;SDS011;5042;42.626;23.382;2022-09-09T12:26:58;4.65;;;3.90;;
10005;SDS011;5042;42.626;23.382;2022-09-09T12:29:33;4.60;;;4.20;;
10005;SDS011;5042;42.626;23.382;2022-09-09T12:32:10;4.63;;;4.22;;
10005;SDS011;5042;42.626;23.382;2022-09-09T12:34:41;4.25;;;3.55;;
10005;SDS011;5042;42.626;23.382;2022-09-09T12:37:15;4.45;;;4.05;;
10005;SDS011;5042;42.626;23.382;2022-09-09T12:39:49;5.07;;;4.25;;
10005;SDS011;5042;42.626;23.382;2022-09-09T12:42:21;4.38;;;3.97;;
10005;SDS011;5042;42.626;23.382;2022-09-09T12:44:53;7.25;;;4.13;;
10005;SDS011;5042;42.626;23.382;2022-09-09T12:47:22;5.15;;;4.30;;
10005;SDS011;5042;42.626;23.382;2022-09-09T12:49:55;4.85;;;4.45;;
10005;SDS011;5042;42.626;23.382;2022-09-09T12:52:24;5.85;;;4.30;;
10005;SDS011;5042;42.626;23.382;2022-09-09T12:54:56;4.63;;;4.22;;
10005;SDS011;5042;42.626;23.382;2022-09-09T12:57:25;4.45;;;4.03;;
10005;SDS011;5042;42.626;23.382;2022-09-09T13:00:04;4.93;;;4.43;;
10005;SDS011;5042;42.626;23.382;2022-09-09T13:02:45;4.28;;;3.72;;
10005;SDS011;5042;42.626;23.382;2022-09-09T13:05:19;5.28;;;4.78;;
10005;SDS011;5042;42.626;23.382;2022-09-09T13:07:48;4.50;;;4.10;;
10005;SDS011;5042;42.626;23.382;2022-09-09T13:10:15;7.07;;;4.93;;
10005;SDS011;5042;42.626;23.382;2022-09-09T13:12:50;4.70;;;4.30;;
10005;SDS011;5042;42.626;23.382;2022-09-09T13:15:19;4.40;;;4.00;;
10005;SDS011;5042;42.626;23.382;2022-09-09T13:17:53;4.43;;;3.97;;
10005;SDS011;5042;42.626;23.382;2022-09-09T13:20:23;4.82;;;4.35;;
10005;SDS011;5042;42.626;23.382;2022-09-09T13:22:51;5.88;;;3.95;;
10005;SDS011;5042;42.626;23.382;2022-09-09T13:25:24;5.68;;;4.45;;
10005;SDS011;5042;42.626;23.382;2022-09-09T13:27:54;5.22;;;4.50;;
10005;SDS011;5042;42.626;23.382;2022-09-09T13:30:23;4.82;;;4.43;;
10005;SDS011;5042;42.626;23.382;2022-09-09T13:33:06;6.75;;;4.40;;
10005;SDS011;5042;42.626;23.382;2022-09-09T13:35:50;5.18;;;4.68;;
10005;SDS011;5042;42.626;23.382;2022-09-09T13:38:20;6.13;;;4.78;;
10005;SDS011;5042;42.626;23.382;2022-09-09T13:40:57;5.10;;;4.60;;
10005;SDS011;5042;42.626;23.382;2022-09-09T13:43:27;6.45;;;4.57;;
10005;SDS011;5042;42.626;23.382;2022-09-09T13:45:56;6.28;;;4.85;;
10005;SDS011;5042;42.626;23.382;2022-09-09T13:48:25;5.22;;;4.50;;
10005;SDS011;5042;42.626;23.382;2022-09-09T13:50:58;6.93;;;4.80;;
10005;SDS011;5042;42.626;23.382;2022-09-09T13:53:26;5.75;;;4.60;;
10005;SDS011;5042;42.626;23.382;2022-09-09T13:55:53;4.63;;;4.15;;
10005;SDS011;5042;42.626;23.382;2022-09-09T13:58:22;4.68;;;4.10;;
10005;SDS011;5042;42.626;23.382;2022-09-09T14:00:50;6.20;;;4.55;;
10005;SDS011;5042;42.626;23.382;2022-09-09T14:03:17;4.72;;;4.38;;
10005;SDS011;5042;42.626;23.382;2022-09-09T14:05:44;5.60;;;4.90;;
10005;SDS011;5042;42.626;23.382;2022-09-09T14:08:15;4.53;;;4.10;;
10005;SDS011;5042;42.626;23.382;2022-09-09T14:10:47;4.80;;;3.95;;
10005;SDS011;5042;42.626;23.382;2022-09-09T14:13:13;4.60;;;4.20;;
10005;SDS011;5042;42.626;23.382;2022-09-09T14:15:40;9.35;;;4.47;;
10005;SDS011;5042;42.626;23.382;2022-09-09T14:18:09;5.15;;;4.03;;
10005;SDS011;5042;42.626;23.382;2022-09-09T14:20:37;5.22;;;4.47;;
10005;SDS011;5042;42.626;23.382;2022-09-09T14:23:04;4.68;;;4.25;;
10005;SDS011;5042;42.626;23.382;2022-09-09T14:25:33;4.50;;;4.10;;
10005;SDS011;5042;42.626;23.382;2022-09-09T14:27:59;5.18;;;4.57;;
10005;SDS011;5042;42.626;23.382;2022-09-09T14:30:28;4.80;;;4.25;;
10005;SDS011;5042;42.626;23.382;2022-09-09T14:32:55;4.68;;;4.20;;
10005;SDS011;5042;42.626;23.382;2022-09-09T14:35:21;4.30;;;3.92;;
10005;SDS011;5042;42.626;23.382;2022-09-09T14:37:48;4.50;;;4.10;;
10005;SDS011;5042;42.626;23.382;2022-09-09T14:40:15;5.28;;;4.47;;
10005;SDS011;5042;42.626;23.382;2022-09-09T14:42:43;4.88;;;4.38;;
10005;SDS011;5042;42.626;23.382;2022-09-09T14:45:11;8.35;;;4.32;;
10005;SDS011;5042;42.626;23.382;2022-09-09T14:47:38;7.68;;;4.70;;
10005;SDS011;5042;42.626;23.382;2022-09-09T14:50:05;5.85;;;3.95;;
10005;SDS011;5042;42.626;23.382;2022-09-09T14:52:34;5.78;;;4.63;;
10005;SDS011;5042;42.626;23.382;2022-09-09T14:55:00;4.97;;;4.47;;
10005;SDS011;5042;42.626;23.382;2022-09-09T14:57:28;4.75;;;4.10;;
10005;SDS011;5042;42.626;23.382;2022-09-09T14:59:56;4.68;;;4.28;;
10005;SDS011;5042;42.626;23.382;2022-09-09T15:02:23;5.68;;;4.60;;
10005;SDS011;5042;42.626;23.382;2022-09-09T15:04:50;6.18;;;4.80;;
10005;SDS011;5042;42.626;23.382;2022-09-09T15:07:17;4.85;;;4.03;;
10005;SDS011;5042;42.626;23.382;2022-09-09T15:09:44;4.95;;;4.10;;
10005;SDS011;5042;42.626;23.382;2022-09-09T15:12:12;4.93;;;4.43;;
10005;SDS011;5042;42.626;23.382;2022-09-09T15:14:39;5.35;;;4.65;;
10005;SDS011;5042;42.626;23.382;2022-09-09T15:17:07;5.00;;;4.38;;
10005;SDS011;5042;42.626;23.382;2022-09-09T15:19:34;4.15;;;3.83;;